Vance, SC (29163)

9:29 AM EST on December 20, 2014 (GMT -0500)
Santee State Park-K9YS | Change Station
CLOSE
Current Station
Personal Weather Station
Location: Santee, SC
Elevation: 135 ft
Nearby Weather Stations

Elev 135 ft 33.52 °N, 80.50 °W | Updated 22 seconds ago

Rain
Rain
48.2 °F
Feels Like 48 °F
N
0.0
Wind Variable Wind from North
Gusts 0.0 mph

Today
High -- | Low -- °F
--% Chance of Precip.
Yesterday
High -- | Low -- °F
Precip. -- in
7:21 AM 5:17 PM
Waning Crescent, 3% visible
Pressure 30.22 in
Visibility 3.0 miles
Clouds Few 600 ft
Mostly Cloudy 6500 ft
Overcast 8000 ft
Windchill 48 °F
Dew Point 48 °F
Humidity 100%
Rainfall 0.11 in
Snow Depth Not available.
UV 0 out of 12
Pollen .50 out of 12
Air Quality Not available.
Flu Activity Not available.
SPECI KOGB 201409Z AUTO 06003KT 3SM -RA BR FEW006 BKN065 OVC080 09/07 A3022 RMK AO2 P0001 T00890072

More Conditions Fewer Conditions

Pressure 30.22 in
Visibility 3.0 miles
Clouds Few 600 ft
Mostly Cloudy 6500 ft
Overcast 8000 ft
Windchill 48 °F
Dew Point 48 °F
Humidity 100%
Rainfall 0.11 in
Snow Depth Not available.
UV 0 out of 12
Pollen .50 out of 12
Air Quality Not available.
Flu Activity Not available.
SPECI KOGB 201409Z AUTO 06003KT 3SM -RA BR FEW006 BKN065 OVC080 09/07 A3022 RMK AO2 P0001 T00890072

More Conditions Fewer Conditions

10-Day Weather Forecast

Almanac

Astronomy

Dec. 20, 2014 Rise Set
Actual Time
Civil Twilight
Nautical Twilight
Astronomical Twilight
Moon
Length of Visible Light
Length of Day
Tomorrow will be .
, % of the Moon is Illuminated

Today's Extremes

State Highs State Lows

Community

WunderPhotos

Upload Photos

1,779,174 photos uploaded!

WunderBlogs® & News

Nearby

Air Quality

  Air Quality AQ Index Pollutant
Not available.

Snow Depth

Station Depth Elevation

Earthquake Activity

City Distance Mag. Time & Date
Minimum magnitude displayed is 2.5.

Coastal Water Temperatures

Place Temperature

Nearby Weather Stations